createdAt,value
2017-05-24T00:00:21.573Z,68.05
2017-05-24T00:01:21.568Z,68.43
2017-05-24T00:02:21.567Z,68.33
2017-05-24T00:03:21.561Z,68.33
2017-05-24T00:04:21.559Z,68.43
2017-05-24T00:05:21.556Z,68.72
2017-05-24T00:06:21.551Z,68.72
2017-05-24T00:07:21.547Z,68.72
2017-05-24T00:08:21.548Z,68.52
2017-05-24T00:09:21.541Z,68.72
2017-05-24T00:10:21.233Z,68.43
2017-05-24T00:11:21.536Z,68.43
2017-05-24T00:12:21.534Z,68.43
2017-05-24T00:13:21.528Z,68.43
2017-05-24T00:14:21.522Z,68.33
2017-05-24T00:15:21.522Z,68.72
2017-05-24T00:16:21.522Z,68.33
2017-05-24T00:17:21.515Z,69.1
2017-05-24T00:18:21.514Z,68.33
2017-05-24T00:19:21.510Z,68.24
2017-05-24T00:20:21.507Z,68.43
2017-05-24T00:21:21.504Z,69.01
2017-05-24T00:22:21.503Z,68.91
2017-05-24T00:23:21.190Z,68.91
2017-05-24T00:24:21.496Z,68.81
2017-05-24T00:25:21.183Z,68.91
2017-05-24T00:26:21.490Z,69.01
2017-05-24T00:27:21.485Z,68.52
2017-05-24T00:28:21.482Z,68.81
2017-05-24T00:29:21.475Z,68.62
2017-05-24T00:30:21.170Z,68.52
2017-05-24T00:31:21.479Z,69.1
2017-05-24T00:32:21.162Z,68.91
2017-05-24T00:33:21.466Z,68.91
2017-05-24T00:34:21.160Z,68.91
2017-05-24T00:35:21.462Z,68.81
2017-05-24T00:36:21.459Z,68.91
2017-05-24T00:37:21.449Z,68.91
2017-05-24T00:38:21.455Z,68.91
2017-05-24T00:39:21.445Z,68.91
2017-05-24T00:40:21.443Z,68.81
2017-05-24T00:41:21.438Z,68.33
2017-05-24T00:42:21.435Z,68.81
2017-05-24T00:43:21.434Z,69.2
2017-05-24T00:44:21.432Z,69.1
2017-05-24T00:45:21.428Z,69.2
2017-05-24T00:46:21.423Z,68.52
2017-05-24T00:47:21.419Z,68.72
2017-05-24T00:48:21.423Z,68.33
2017-05-24T00:49:21.420Z,68.24
2017-05-24T00:50:21.453Z,68.33
2017-05-24T00:51:21.407Z,68.72
2017-05-24T00:52:21.406Z,68.52
2017-05-24T00:53:21.403Z,68.24
2017-05-24T00:54:21.398Z,68.33
2017-05-24T00:55:21.399Z,68.43
2017-05-24T00:56:21.392Z,68.43
2017-05-24T00:57:21.386Z,68.43
2017-05-24T00:58:21.383Z,68.43
2017-05-24T00:59:21.384Z,68.43
2017-05-24T01:00:21.378Z,68.62
2017-05-24T01:01:21.374Z,68.52
2017-05-24T01:02:21.373Z,68.62
2017-05-24T01:03:21.368Z,68.72
2017-05-24T01:04:21.366Z,68.52
2017-05-24T01:05:21.360Z,68.52
2017-05-24T01:06:21.359Z,68.72
2017-05-24T01:07:21.355Z,68.62
2017-05-24T01:08:21.352Z,68.43
2017-05-24T01:09:21.346Z,68.24
2017-05-24T01:10:21.348Z,68.52
2017-05-24T01:11:21.340Z,68.72
2017-05-24T01:12:21.335Z,68.72
2017-05-24T01:13:21.333Z,68.91
2017-05-24T01:14:21.330Z,68.81
2017-05-24T01:15:21.329Z,68.81
2017-05-24T01:16:21.325Z,68.81
2017-05-24T01:17:21.323Z,68.81
2017-05-24T01:18:21.319Z,68.72
2017-05-24T01:19:21.315Z,68.81
2017-05-24T01:20:21.311Z,68.72
2017-05-24T01:21:21.307Z,68.91
2017-05-24T01:22:21.306Z,68.24
2017-05-24T01:23:20.995Z,68.43
2017-05-24T01:24:20.996Z,68.33
2017-05-24T01:25:21.295Z,68.43
2017-05-24T01:26:21.293Z,68.91
2017-05-24T01:27:20.981Z,68.43
2017-05-24T01:28:21.291Z,68.91
2017-05-24T01:29:20.975Z,68.72
2017-05-24T01:30:21.277Z,68.91
2017-05-24T01:31:21.276Z,69.01
2017-05-24T01:32:20.966Z,68.72
2017-05-24T01:33:20.962Z,68.81
2017-05-24T01:34:21.264Z,68.81
2017-05-24T01:35:21.263Z,68.72
2017-05-24T01:36:21.266Z,68.72
2017-05-24T01:37:21.256Z,68.72
2017-05-24T01:38:21.254Z,68.62
2017-05-24T01:39:21.250Z,68.81
2017-05-24T01:40:20.940Z,68.78
2017-05-24T01:41:21.240Z,68.91
2017-05-24T01:42:21.240Z,68.72
2017-05-24T01:43:21.235Z,68.72
2017-05-24T01:44:21.246Z,68.97
2017-05-24T01:45:21.229Z,69.58
2017-05-24T01:46:21.227Z,68.91
2017-05-24T01:47:21.230Z,68.72
2017-05-24T01:48:21.227Z,68.72
2017-05-24T01:49:21.217Z,68.72
2017-05-24T01:50:21.213Z,68.91
2017-05-24T01:51:21.209Z,68.91
2017-05-24T01:52:21.206Z,68.72
2017-05-24T01:53:21.202Z,68.72
2017-05-24T01:54:21.210Z,68.81
2017-05-24T01:55:21.196Z,68.72
2017-05-24T01:56:21.193Z,68.81
2017-05-24T01:57:20.883Z,69.2
2017-05-24T01:58:21.189Z,68.91
2017-05-24T01:59:21.186Z,69.01
2017-05-24T02:00:21.179Z,69.2
2017-05-24T02:01:21.178Z,69.39
2017-05-24T02:02:21.173Z,69.01
2017-05-24T02:03:21.169Z,69.35
2017-05-24T02:04:21.170Z,69.17
2017-05-24T02:05:21.164Z,69.35
2017-05-24T02:06:21.165Z,69.54
2017-05-24T02:07:20.850Z,69.35
2017-05-24T02:08:20.850Z,69.45
2017-05-24T02:09:21.157Z,69.45
2017-05-24T02:10:20.842Z,69.35
2017-05-24T02:11:21.144Z,69.64
2017-05-24T02:12:20.834Z,70.41
2017-05-24T02:13:21.135Z,70.31
2017-05-24T02:14:21.135Z,69.83
2017-05-24T02:15:21.131Z,69.93
2017-05-24T02:16:21.131Z,69.93
2017-05-24T02:17:21.130Z,70.6
2017-05-24T02:18:21.120Z,70.31
2017-05-24T02:19:21.119Z,70.21
2017-05-24T02:20:21.112Z,70.7
2017-05-24T02:21:21.116Z,70.6
2017-05-24T02:22:21.107Z,70.6
2017-05-24T02:23:21.109Z,70.6
2017-05-24T02:24:20.798Z,71.27
2017-05-24T02:25:21.101Z,70.89
2017-05-24T02:26:21.096Z,70.98
2017-05-24T02:27:21.091Z,70.98
2017-05-24T02:28:21.098Z,70.98
2017-05-24T02:29:20.780Z,71.17
2017-05-24T02:30:21.083Z,71.46
2017-05-24T02:31:21.077Z,71.56
2017-05-24T02:32:21.075Z,71.08
2017-05-24T02:33:20.765Z,70.41
2017-05-24T02:34:20.760Z,70.41
2017-05-24T02:35:21.063Z,71.08
2017-05-24T02:36:21.062Z,71.17
2017-05-24T02:37:21.056Z,70.5
2017-05-24T02:38:21.057Z,70.6
2017-05-24T02:39:20.745Z,70.6
2017-05-24T02:40:21.047Z,70.89
2017-05-24T02:41:21.044Z,70.6
2017-05-24T02:42:21.042Z,70.6
2017-05-24T02:43:20.732Z,71.37
2017-05-24T02:44:21.035Z,70.89
2017-05-24T02:45:20.724Z,70.21
2017-05-24T02:46:21.029Z,70.5
2017-05-24T02:47:20.719Z,70.6
2017-05-24T02:48:21.021Z,71.27
2017-05-24T02:49:20.713Z,70.98
2017-05-24T02:50:21.014Z,70.5
2017-05-24T02:51:20.704Z,70.31
2017-05-24T02:52:21.010Z,70.7
2017-05-24T02:53:21.005Z,71.17
2017-05-24T02:54:21.001Z,70.41
2017-05-24T02:55:20.690Z,70.41
2017-05-24T02:56:20.992Z,70.79
2017-05-24T02:57:20.991Z,70.7
2017-05-24T02:58:20.987Z,71.27
2017-05-24T02:59:20.983Z,70.6
2017-05-24T03:00:20.980Z,71.27
2017-05-24T03:01:20.979Z,71.27
2017-05-24T03:02:20.974Z,70.6
2017-05-24T03:03:20.973Z,70.5
2017-05-24T03:04:20.967Z,70.5
2017-05-24T03:05:20.713Z,70.79
2017-05-24T03:06:20.959Z,70.79
2017-05-24T03:07:20.957Z,70.5
2017-05-24T03:08:20.955Z,70.03
2017-05-24T03:09:20.951Z,70.5
2017-05-24T03:10:20.643Z,70.44
2017-05-24T03:11:20.945Z,70.12
2017-05-24T03:12:20.942Z,70.15
2017-05-24T03:13:20.941Z,70.06
2017-05-24T03:14:20.934Z,70.25
2017-05-24T03:15:20.929Z,70.15
2017-05-24T03:16:20.925Z,69.39
2017-05-24T03:17:20.926Z,69.29
2017-05-24T03:18:20.919Z,69.2
2017-05-24T03:19:20.918Z,69.58
2017-05-24T03:20:20.610Z,69.48
2017-05-24T03:21:20.666Z,69.39
2017-05-24T03:22:20.600Z,69.39
2017-05-24T03:23:20.906Z,68.81
2017-05-24T03:24:20.899Z,69.2
2017-05-24T03:25:20.896Z,69.2
2017-05-24T03:26:20.894Z,68.72
2017-05-24T03:27:20.891Z,68.81
2017-05-24T03:28:20.887Z,68.91
2017-05-24T03:29:20.883Z,68.52
2017-05-24T03:30:20.878Z,69.01
2017-05-24T03:31:20.876Z,68.24
2017-05-24T03:32:20.877Z,68.91
2017-05-24T03:33:20.870Z,68.81
2017-05-24T03:34:20.867Z,68.52
2017-05-24T03:35:20.863Z,68.33
2017-05-24T03:36:20.860Z,68.72
2017-05-24T03:37:20.857Z,68.52
2017-05-24T03:38:20.547Z,68.52
2017-05-24T03:39:20.852Z,68.43
2017-05-24T03:40:20.844Z,68.14
2017-05-24T03:41:20.845Z,68.43
2017-05-24T03:42:20.839Z,68.43
2017-05-24T03:43:20.834Z,68.24
2017-05-24T03:44:20.837Z,67.85
2017-05-24T03:45:20.830Z,68.43
2017-05-24T03:46:20.827Z,68.24
2017-05-24T03:47:20.516Z,68.33
2017-05-24T03:48:20.518Z,68.05
2017-05-24T03:49:20.814Z,68.05
2017-05-24T03:50:20.812Z,68.33
2017-05-24T03:51:20.810Z,68.14
2017-05-24T03:52:20.807Z,68.52
2017-05-24T03:53:20.809Z,68.43
2017-05-24T03:54:20.802Z,68.72
2017-05-24T03:55:20.497Z,68.91
2017-05-24T03:56:20.794Z,68.52
2017-05-24T03:57:20.790Z,68.81
2017-05-24T03:58:20.788Z,68.52
2017-05-24T03:59:20.784Z,68.72
2017-05-24T04:00:20.780Z,69.1
2017-05-24T04:01:20.468Z,68.91
2017-05-24T04:02:20.774Z,68.81
2017-05-24T04:03:20.768Z,69.39
2017-05-24T04:04:20.768Z,69.29
2017-05-24T04:05:20.765Z,69.2
2017-05-24T04:06:20.759Z,69.1
2017-05-24T04:07:20.757Z,69.2
2017-05-24T04:08:20.750Z,69.2
2017-05-24T04:09:20.750Z,69.01
2017-05-24T04:10:20.750Z,69.1
2017-05-24T04:11:20.436Z,69.01
2017-05-24T04:12:20.432Z,69.2
2017-05-24T04:13:20.736Z,69.2
2017-05-24T04:14:20.735Z,69.2
2017-05-24T04:15:20.730Z,69.29
2017-05-24T04:16:20.724Z,69.39
2017-05-24T04:17:20.725Z,69.2
2017-05-24T04:18:20.722Z,69.48
2017-05-24T04:19:20.722Z,69.39
2017-05-24T04:20:20.711Z,69.39
2017-05-24T04:21:20.708Z,69.29
2017-05-24T04:22:20.706Z,69.39
2017-05-24T04:23:20.700Z,69.48
2017-05-24T04:24:20.393Z,69.39
2017-05-24T04:25:20.699Z,69.48
2017-05-24T04:26:20.691Z,69.39
2017-05-24T04:27:20.383Z,69.39
2017-05-24T04:28:20.685Z,69.39
2017-05-24T04:29:20.683Z,69.68
2017-05-24T04:30:20.372Z,69.39
2017-05-24T04:31:20.371Z,69.87
2017-05-24T04:32:20.366Z,69.96
2017-05-24T04:33:20.360Z,69.39
2017-05-24T04:34:20.357Z,69.96
2017-05-24T04:35:20.668Z,69.29
2017-05-24T04:36:20.659Z,68.91
2017-05-24T04:37:20.655Z,68.33
2017-05-24T04:38:20.346Z,67.76
2017-05-24T04:39:20.649Z,67.09
2017-05-24T04:40:20.646Z,66.51
2017-05-24T04:41:20.646Z,65.75
2017-05-24T04:42:20.636Z,64.98
2017-05-24T04:43:20.633Z,64.4
2017-05-24T04:44:20.634Z,64.12
2017-05-24T04:45:20.626Z,63.73
2017-05-24T04:46:20.627Z,63.16
2017-05-24T04:47:20.624Z,63.06
2017-05-24T04:48:20.620Z,62.49
2017-05-24T04:49:20.615Z,62.3
2017-05-24T04:50:20.307Z,61.63
2017-05-24T04:51:20.607Z,61.15
2017-05-24T04:52:20.603Z,60.09
2017-05-24T04:53:20.603Z,60.09
2017-05-24T04:54:20.599Z,60.28
2017-05-24T04:55:20.288Z,60
2017-05-24T04:56:20.589Z,59.8
2017-05-24T04:57:20.597Z,60
2017-05-24T04:58:20.583Z,60
2017-05-24T04:59:20.583Z,60.41
2017-05-24T05:00:20.577Z,60.76
2017-05-24T05:01:20.622Z,61.94
2017-05-24T05:02:20.264Z,62.13
2017-05-24T05:03:20.570Z,61.94
2017-05-24T05:04:20.568Z,62.71
2017-05-24T05:05:20.562Z,63.19
2017-05-24T05:06:20.556Z,63.19
2017-05-24T05:07:20.554Z,63.54
2017-05-24T05:08:20.551Z,63.38
2017-05-24T05:09:20.549Z,63.86
2017-05-24T05:10:20.239Z,63.48
2017-05-24T05:11:20.540Z,63.38
2017-05-24T05:12:20.537Z,63.09
2017-05-24T05:13:20.535Z,62.9
2017-05-24T05:14:20.539Z,62.62
2017-05-24T05:15:20.527Z,62.13
2017-05-24T05:16:20.523Z,62.33
2017-05-24T05:17:20.522Z,61.37
2017-05-24T05:18:20.213Z,60.89
2017-05-24T05:19:20.515Z,60.31
2017-05-24T05:20:20.512Z,60.12
2017-05-24T05:21:20.507Z,59.93
2017-05-24T05:22:20.504Z,59.64
2017-05-24T05:23:20.500Z,59.64
2017-05-24T05:24:20.191Z,59.67
2017-05-24T05:25:20.187Z,59.16
2017-05-24T05:26:20.493Z,59.19
2017-05-24T05:27:20.180Z,58.14
2017-05-24T05:28:20.178Z,57.95
2017-05-24T05:29:20.485Z,57.56
2017-05-24T05:30:20.173Z,56.31
2017-05-24T05:31:20.475Z,55.62
2017-05-24T05:32:20.473Z,55.23
2017-05-24T05:33:20.167Z,54.75
2017-05-24T05:34:20.467Z,53.99
2017-05-24T05:35:20.460Z,54.75
2017-05-24T05:36:20.460Z,54.27
2017-05-24T05:37:20.459Z,54.56
2017-05-24T05:38:20.458Z,54.58
2017-05-24T05:39:20.448Z,54.01
2017-05-24T05:40:20.446Z,54.01
2017-05-24T05:41:20.136Z,54.11
2017-05-24T05:42:20.441Z,54.08
2017-05-24T05:43:20.438Z,54.08
2017-05-24T05:44:20.434Z,53.91
2017-05-24T05:45:20.428Z,53.72
2017-05-24T05:46:20.432Z,53.44
2017-05-24T05:47:20.423Z,52.95
2017-05-24T05:48:20.421Z,52.57
2017-05-24T05:49:20.418Z,52
2017-05-24T05:50:20.416Z,52.09
2017-05-24T05:51:20.413Z,50.27
2017-05-24T05:52:20.407Z,50.56
2017-05-24T05:53:20.405Z,50.27
2017-05-24T05:54:20.402Z,50.46
2017-05-24T05:55:20.398Z,50.65
2017-05-24T05:56:20.396Z,50.56
2017-05-24T05:57:20.393Z,50.37
2017-05-24T05:58:20.390Z,50.08
2017-05-24T05:59:20.386Z,49.52
2017-05-24T06:00:20.382Z,49.5
2017-05-24T06:01:20.385Z,49.5
2017-05-24T06:02:20.380Z,49.79
2017-05-24T06:03:20.381Z,49.02
2017-05-24T06:04:20.371Z,49.21
2017-05-24T06:05:20.064Z,49.21
2017-05-24T06:06:20.366Z,49.12
2017-05-24T06:07:20.364Z,49.12
2017-05-24T06:08:20.360Z,49.12
2017-05-24T06:09:20.359Z,48.74
2017-05-24T06:10:20.354Z,48.16
2017-05-24T06:11:20.351Z,48.18
2017-05-24T06:12:20.346Z,48.57
2017-05-24T06:13:20.344Z,48.16
2017-05-24T06:14:20.343Z,48.09
2017-05-24T06:15:20.335Z,48.18
2017-05-24T06:16:20.337Z,48.38
2017-05-24T06:17:20.331Z,48.38
2017-05-24T06:18:20.330Z,48.38
2017-05-24T06:19:20.332Z,47.89
2017-05-24T06:20:20.323Z,47.8
2017-05-24T06:21:20.322Z,47.71
2017-05-24T06:22:20.012Z,47.71
2017-05-24T06:23:20.325Z,47.32
2017-05-24T06:24:20.313Z,46.84
2017-05-24T06:25:20.309Z,47.51
2017-05-24T06:26:20.304Z,47.22
2017-05-24T06:27:20.303Z,46.94
2017-05-24T06:28:20.302Z,47.32
2017-05-24T06:29:20.298Z,46.84
2017-05-24T06:30:20.293Z,47.32
2017-05-24T06:31:19.985Z,47.61
2017-05-24T06:32:20.289Z,47.41
2017-05-24T06:33:20.285Z,46.74
2017-05-24T06:34:20.284Z,47.32
2017-05-24T06:35:20.278Z,46.94
2017-05-24T06:36:19.970Z,47.03
2017-05-24T06:37:19.968Z,46.45
2017-05-24T06:38:19.965Z,46.36
2017-05-24T06:39:20.268Z,46.45
2017-05-24T06:40:20.265Z,46.17
2017-05-24T06:41:20.264Z,46.36
2017-05-24T06:42:20.260Z,46
2017-05-24T06:43:20.257Z,45.59
2017-05-24T06:44:19.946Z,45.9
2017-05-24T06:45:19.943Z,46.17
2017-05-24T06:46:20.274Z,46.38
2017-05-24T06:47:20.244Z,46.19
2017-05-24T06:48:20.242Z,46
2017-05-24T06:49:20.239Z,45.81
2017-05-24T06:50:20.236Z,45.9
2017-05-24T06:51:20.234Z,45.71
2017-05-24T06:52:20.230Z,45.23
2017-05-24T06:53:19.921Z,45.23
2017-05-24T06:54:20.225Z,44.94
2017-05-24T06:55:20.222Z,44.94
2017-05-24T06:56:19.912Z,45.14
2017-05-24T06:57:20.215Z,45.73
2017-05-24T06:58:19.905Z,45.25
2017-05-24T06:59:20.207Z,46.02
2017-05-24T07:00:20.210Z,45.83
2017-05-24T07:01:20.203Z,45.73
2017-05-24T07:02:19.894Z,46.12
2017-05-24T07:03:20.195Z,45.92
2017-05-24T07:04:19.888Z,45.83
2017-05-24T07:05:20.194Z,45.83
2017-05-24T07:06:20.188Z,45.92
2017-05-24T07:07:20.186Z,45.92
2017-05-24T07:08:20.184Z,45.95
2017-05-24T07:09:20.182Z,45.85
2017-05-24T07:10:20.176Z,45.18
2017-05-24T07:11:20.174Z,44.89
2017-05-24T07:12:20.171Z,44.89
2017-05-24T07:13:19.869Z,44.79
2017-05-24T07:14:19.869Z,44.82
2017-05-24T07:15:20.163Z,44.91
2017-05-24T07:16:20.166Z,44.34
2017-05-24T07:17:20.158Z,43.85
2017-05-24T07:18:19.853Z,43.47
2017-05-24T07:19:19.848Z,43.76
2017-05-24T07:20:20.151Z,43.57
2017-05-24T07:21:19.841Z,43.01
2017-05-24T07:22:19.840Z,42.46
2017-05-24T07:23:19.839Z,40.84
2017-05-24T07:24:19.836Z,39.06
2017-05-24T07:25:20.137Z,37.17
2017-05-24T07:26:19.830Z,35.76
2017-05-24T07:27:20.133Z,35.31
2017-05-24T07:28:19.830Z,34.34
2017-05-24T07:29:19.822Z,34.07
2017-05-24T07:30:20.127Z,33.22
2017-05-24T07:31:19.823Z,33.02
2017-05-24T07:32:19.818Z,32.73
2017-05-24T07:33:19.816Z,32.36
2017-05-24T07:34:19.813Z,31.31
2017-05-24T07:35:19.810Z,30.55
2017-05-24T07:36:19.805Z,29.6
2017-05-24T07:37:20.113Z,29.22
2017-05-24T07:38:19.805Z,29.02
2017-05-24T07:39:19.805Z,29.5
2017-05-24T07:40:20.104Z,29.68
2017-05-24T07:41:20.103Z,30.45
2017-05-24T07:42:20.100Z,30.73
2017-05-24T07:43:20.100Z,30.44
2017-05-24T07:44:19.792Z,30.15
2017-05-24T07:45:20.098Z,30.05
2017-05-24T07:46:20.096Z,30.62
2017-05-24T07:47:20.094Z,31.37
2017-05-24T07:48:20.091Z,31.56
2017-05-24T07:49:20.088Z,32.31
2017-05-24T07:50:20.088Z,32.31
2017-05-24T07:51:20.085Z,31.93
2017-05-24T07:52:20.084Z,31.73
2017-05-24T07:53:19.778Z,31.46
2017-05-24T07:54:20.081Z,30.41
2017-05-24T07:55:19.771Z,29.27
2017-05-24T07:56:20.077Z,28.23
2017-05-24T07:57:20.075Z,27.37
2017-05-24T07:58:20.074Z,25.95
2017-05-24T07:59:20.076Z,25.58
2017-05-24T08:00:20.071Z,24.93
2017-05-24T08:01:20.069Z,24.73
2017-05-24T08:02:20.068Z,24.73
2017-05-24T08:03:19.759Z,25.09
2017-05-24T08:04:19.759Z,25.65
2017-05-24T08:05:19.757Z,26.51
2017-05-24T08:06:19.757Z,26.4
2017-05-24T08:07:19.752Z,27.37
2017-05-24T08:08:20.058Z,27.84
2017-05-24T08:09:19.760Z,27.66
2017-05-24T08:10:20.056Z,27.66
2017-05-24T08:11:20.054Z,27.46
2017-05-24T08:12:20.051Z,27.66
2017-05-24T08:13:19.743Z,27.37
2017-05-24T08:14:20.051Z,27.18
2017-05-24T08:15:20.047Z,27.37
2017-05-24T08:16:20.048Z,27.28
2017-05-24T08:17:20.046Z,27.47
2017-05-24T08:18:20.042Z,27.46
2017-05-24T08:19:20.045Z,27.75
2017-05-24T08:20:20.040Z,28.33
2017-05-24T08:21:20.037Z,28.7
2017-05-24T08:22:20.037Z,28.98
2017-05-24T08:23:20.035Z,29.08
2017-05-24T08:24:19.726Z,29.64
2017-05-24T08:25:20.030Z,30.11
2017-05-24T08:26:20.030Z,30.51
2017-05-24T08:27:20.030Z,30.58
2017-05-24T08:28:20.030Z,30.96
2017-05-24T08:29:20.025Z,31.05
2017-05-24T08:30:20.023Z,31.23
2017-05-24T08:31:20.022Z,31.91
2017-05-24T08:32:19.740Z,31.71
2017-05-24T08:33:20.021Z,31.31
2017-05-24T08:34:20.019Z,32.01
2017-05-24T08:35:20.014Z,32.49
2017-05-24T08:36:19.709Z,31.91
2017-05-24T08:37:20.011Z,31.71
2017-05-24T08:38:20.065Z,31.83
2017-05-24T08:39:20.008Z,31.44
2017-05-24T08:40:20.013Z,31.83
2017-05-24T08:41:20.007Z,31.43
2017-05-24T08:42:20.005Z,31.25
2017-05-24T08:43:20.003Z,31.34
2017-05-24T08:44:20.006Z,31.93
2017-05-24T08:45:19.998Z,31.73
2017-05-24T08:46:19.996Z,32.02
2017-05-24T08:47:19.995Z,31.63
2017-05-24T08:48:19.999Z,31.83
2017-05-24T08:49:19.991Z,31.83
2017-05-24T08:50:19.997Z,31.73
2017-05-24T08:51:19.989Z,32.21
2017-05-24T08:52:20.003Z,31.93
2017-05-24T08:53:19.985Z,32.41
2017-05-24T08:54:19.984Z,31.93
2017-05-24T08:55:19.983Z,32.6
2017-05-24T08:56:19.981Z,32.51
2017-05-24T08:57:19.980Z,32.51
2017-05-24T08:58:20.029Z,32.6
2017-05-24T08:59:19.976Z,32.99
2017-05-24T09:00:20.046Z,32.6
2017-05-24T09:01:19.974Z,32.41
2017-05-24T09:02:19.974Z,32.51
2017-05-24T09:03:19.968Z,32.87
2017-05-24T09:04:19.967Z,32.68
2017-05-24T09:05:19.966Z,32.68
2017-05-24T09:06:19.663Z,32.86
2017-05-24T09:07:20.023Z,33.05
2017-05-24T09:08:19.959Z,33.05
2017-05-24T09:09:19.960Z,33.92
2017-05-24T09:10:19.964Z,34
2017-05-24T09:11:19.651Z,34.2
2017-05-24T09:12:19.954Z,34.58
2017-05-24T09:13:20.002Z,35.14
2017-05-24T09:14:19.949Z,35.74
2017-05-24T09:15:19.946Z,35.34
2017-05-24T09:16:19.947Z,35.82
2017-05-24T09:17:19.943Z,36.01
2017-05-24T09:18:19.941Z,36.01
2017-05-24T09:19:19.942Z,35.9
2017-05-24T09:20:19.942Z,36.48
2017-05-24T09:21:19.633Z,36.38
2017-05-24T09:22:19.936Z,36.57
2017-05-24T09:23:19.939Z,36.29
2017-05-24T09:24:19.932Z,36.48
2017-05-24T09:25:19.929Z,36.09
2017-05-24T09:26:19.926Z,36.48
2017-05-24T09:27:19.925Z,36.57
2017-05-24T09:28:19.971Z,36.48
2017-05-24T09:29:19.923Z,37.23
2017-05-24T09:30:19.916Z,37.62
2017-05-24T09:31:19.915Z,37.91
2017-05-24T09:32:19.913Z,37.62
2017-05-24T09:33:19.911Z,37.52
2017-05-24T09:34:19.908Z,37.54
2017-05-24T09:35:19.906Z,37.35
2017-05-24T09:36:19.598Z,37.35
2017-05-24T09:37:19.902Z,37.25
2017-05-24T09:38:19.896Z,37.54
2017-05-24T09:39:19.898Z,37.63
2017-05-24T09:40:19.893Z,37.83
2017-05-24T09:41:19.890Z,37.54
2017-05-24T09:42:19.888Z,37.25
2017-05-24T09:43:19.888Z,37.25
2017-05-24T09:44:19.884Z,37.25
2017-05-24T09:45:19.884Z,37.54
2017-05-24T09:46:19.882Z,37.06
2017-05-24T09:47:19.573Z,37.06
2017-05-24T09:48:19.571Z,37.15
2017-05-24T09:49:19.875Z,37.45
2017-05-24T09:50:19.872Z,37.25
2017-05-24T09:51:19.872Z,37.45
2017-05-24T09:52:19.864Z,37.35
2017-05-24T09:53:19.862Z,37.25
2017-05-24T09:54:19.864Z,36.96
2017-05-24T09:55:19.858Z,36.96
2017-05-24T09:56:19.857Z,37.25
2017-05-24T09:57:19.855Z,37.54
2017-05-24T09:58:19.849Z,36.96
2017-05-24T09:59:19.852Z,37.06
2017-05-24T10:00:19.845Z,37.15
2017-05-24T10:01:19.846Z,37.25
2017-05-24T10:02:19.841Z,37.73
2017-05-24T10:03:19.840Z,37.73
2017-05-24T10:04:19.886Z,37.25
2017-05-24T10:05:19.838Z,37.06
2017-05-24T10:06:19.527Z,37.15
2017-05-24T10:07:19.522Z,37.35
2017-05-24T10:08:19.828Z,37.15
2017-05-24T10:09:19.517Z,36.96
2017-05-24T10:10:19.820Z,36.77
2017-05-24T10:11:19.818Z,36.87
2017-05-24T10:12:19.818Z,36.87
2017-05-24T10:13:19.815Z,36.87
2017-05-24T10:14:19.860Z,36.87
2017-05-24T10:15:19.808Z,36.96
2017-05-24T10:16:19.812Z,36.67
2017-05-24T10:17:19.807Z,37.27
2017-05-24T10:18:19.806Z,36.79
2017-05-24T10:19:19.805Z,36.5
2017-05-24T10:20:19.800Z,35.72
2017-05-24T10:21:19.800Z,35.82
2017-05-24T10:22:19.794Z,35.8
2017-05-24T10:23:19.792Z,35.71
2017-05-24T10:24:19.840Z,35.71
2017-05-24T10:25:19.482Z,35.82
2017-05-24T10:26:19.788Z,35.63
2017-05-24T10:27:19.781Z,35.72
2017-05-24T10:28:19.783Z,35.64
2017-05-24T10:29:19.781Z,35.44
2017-05-24T10:30:19.472Z,35.06
2017-05-24T10:31:19.464Z,35.45
2017-05-24T10:32:19.773Z,35.45
2017-05-24T10:33:19.767Z,35.26
2017-05-24T10:34:19.768Z,35.06
2017-05-24T10:35:19.459Z,34.97
2017-05-24T10:36:19.764Z,34.87
2017-05-24T10:37:19.761Z,34.58
2017-05-24T10:38:19.761Z,34.58
2017-05-24T10:39:19.809Z,35.06
2017-05-24T10:40:19.758Z,34.68
2017-05-24T10:41:19.750Z,34.39
2017-05-24T10:42:19.750Z,34.29
2017-05-24T10:43:19.747Z,34.76
2017-05-24T10:44:19.746Z,35.14
2017-05-24T10:45:19.742Z,35.44
2017-05-24T10:46:19.740Z,35.82
2017-05-24T10:47:19.741Z,36.01
2017-05-24T10:48:19.738Z,35.82
2017-05-24T10:49:19.782Z,36.11
2017-05-24T10:50:19.730Z,35.64
2017-05-24T10:51:19.731Z,35.26
2017-05-24T10:52:19.729Z,34.39
2017-05-24T10:53:19.726Z,34.87
2017-05-24T10:54:19.721Z,35.26
2017-05-24T10:55:19.720Z,35.55
2017-05-24T10:56:19.720Z,35.55
2017-05-24T10:57:19.719Z,35.74
2017-05-24T10:58:19.711Z,35.74
2017-05-24T10:59:19.409Z,35.74
2017-05-24T11:00:19.401Z,35.84
2017-05-24T11:01:19.399Z,35.74
2017-05-24T11:02:19.705Z,35.36
2017-05-24T11:03:19.718Z,35.55
2017-05-24T11:04:19.750Z,35.26
2017-05-24T11:05:19.697Z,35.16
2017-05-24T11:06:19.698Z,35.06
2017-05-24T11:07:19.695Z,34.87
2017-05-24T11:08:19.388Z,34.28
2017-05-24T11:09:19.690Z,34.58
2017-05-24T11:10:19.688Z,34.56
2017-05-24T11:11:19.681Z,34.56
2017-05-24T11:12:19.680Z,34.28
2017-05-24T11:13:19.680Z,34.47
2017-05-24T11:14:19.727Z,34.47
2017-05-24T11:15:19.675Z,34.47
2017-05-24T11:16:19.672Z,34.38
2017-05-24T11:17:19.363Z,33.91
2017-05-24T11:18:19.670Z,33.91
2017-05-24T11:19:19.663Z,34.39
2017-05-24T11:20:19.663Z,34.58
2017-05-24T11:21:19.662Z,34.87
2017-05-24T11:22:19.658Z,34.87
2017-05-24T11:23:19.656Z,34.58
2017-05-24T11:24:19.654Z,34.78
2017-05-24T11:25:19.347Z,34.97
2017-05-24T11:26:19.653Z,35.06
2017-05-24T11:27:19.339Z,34.87
2017-05-24T11:28:19.647Z,34.48
2017-05-24T11:29:19.641Z,34.58
2017-05-24T11:30:19.335Z,34
2017-05-24T11:31:19.637Z,34
2017-05-24T11:32:19.637Z,34.2
2017-05-24T11:33:19.633Z,34
2017-05-24T11:34:19.637Z,34.29
2017-05-24T11:35:19.324Z,34.02
2017-05-24T11:36:19.322Z,33.73
2017-05-24T11:37:19.625Z,33.92
2017-05-24T11:38:19.622Z,34.12
2017-05-24T11:39:19.622Z,34.12
2017-05-24T11:40:19.617Z,34.12
2017-05-24T11:41:19.613Z,34.21
2017-05-24T11:42:19.613Z,34.31
2017-05-24T11:43:19.609Z,34.6
2017-05-24T11:44:19.608Z,34.41
2017-05-24T11:45:19.605Z,34.21
2017-05-24T11:46:19.364Z,34.12
2017-05-24T11:47:19.600Z,34.12
2017-05-24T11:48:19.601Z,33.92
2017-05-24T11:49:19.598Z,33.63
2017-05-24T11:50:19.287Z,33.17
2017-05-24T11:51:19.592Z,33.17
2017-05-24T11:52:19.590Z,32.96
2017-05-24T11:53:19.587Z,33.83
2017-05-24T11:54:19.588Z,33.92
2017-05-24T11:55:19.582Z,34.02
2017-05-24T11:56:19.579Z,33.34
2017-05-24T11:57:19.582Z,33.63
2017-05-24T11:58:19.579Z,33.36
2017-05-24T11:59:19.574Z,32.68
2017-05-24T12:00:19.574Z,32.78
2017-05-24T12:01:19.266Z,32.99
2017-05-24T12:02:19.566Z,31.93
2017-05-24T12:03:19.567Z,31.63
2017-05-24T12:04:19.564Z,32.1
2017-05-24T12:05:19.563Z,31.93
2017-05-24T12:06:19.558Z,32.29
2017-05-24T12:07:19.558Z,32.87
2017-05-24T12:08:19.557Z,32.49
2017-05-24T12:09:19.247Z,32.87
2017-05-24T12:10:19.551Z,32.97
2017-05-24T12:11:19.546Z,32.7
2017-05-24T12:12:19.550Z,32.31
2017-05-24T12:13:19.542Z,32.41
2017-05-24T12:14:19.546Z,32.6
2017-05-24T12:15:19.542Z,32.51
2017-05-24T12:16:19.536Z,32.51
2017-05-24T12:17:19.534Z,32.04
2017-05-24T12:18:19.535Z,31.73
2017-05-24T12:19:19.227Z,31.44
2017-05-24T12:20:19.226Z,31.25
2017-05-24T12:21:19.223Z,31.93
2017-05-24T12:22:19.527Z,31.73
2017-05-24T12:23:19.525Z,31.54
2017-05-24T12:24:19.527Z,31.15
2017-05-24T12:25:19.520Z,30.94
2017-05-24T12:26:19.518Z,31.23
2017-05-24T12:27:19.209Z,31.04
2017-05-24T12:28:19.517Z,30.85
2017-05-24T12:29:19.512Z,30.94
2017-05-24T12:30:19.510Z,31.13
2017-05-24T12:31:19.507Z,31.91
2017-05-24T12:32:19.506Z,31.63
2017-05-24T12:33:19.506Z,31.73
2017-05-24T12:34:19.507Z,32.02
2017-05-24T12:35:19.551Z,32.12
2017-05-24T12:36:19.497Z,31.34
2017-05-24T12:37:19.192Z,31.84
2017-05-24T12:38:19.495Z,31.36
2017-05-24T12:39:19.498Z,31.07
2017-05-24T12:40:19.494Z,31.28
2017-05-24T12:41:19.488Z,31.84
2017-05-24T12:42:19.491Z,31.86
2017-05-24T12:43:19.486Z,30.99
2017-05-24T12:44:19.482Z,30.98
2017-05-24T12:45:19.485Z,30.78
2017-05-24T12:46:19.480Z,31.26
2017-05-24T12:47:19.479Z,31.73
2017-05-24T12:48:19.480Z,31.83
2017-05-24T12:49:19.477Z,32.12
2017-05-24T12:50:19.164Z,31.93
2017-05-24T12:51:19.469Z,31.93
2017-05-24T12:52:19.466Z,31.52
2017-05-24T12:53:19.468Z,31.62
2017-05-24T12:54:19.467Z,31.43
2017-05-24T12:55:19.463Z,32.01